Terminal Aerodrome Forecast
Issued by NWS Wilmington, OH

Current Version | Previous Version | Graphics & Text | Print | Product List | Glossary On
Versions: 1 2 3 4 5 6 7 8 9 10 11 12 13 14
447
FTUS41 KILN 231736
TAFCMH
TAF
KCMH 231736Z 2318/2418 03004KT P6SM SCT050
     FM240100 00000KT P6SM SKC
     FM241400 23007KT P6SM FEW050=

USA.gov is the U.S. government's official web portal to all federal, state and local government web resources and services.